Stockholm Bromma, Sweden

4:48 AM CEST on August 25, 2016 (GMT +0200)
Ursviksvägen | | Change Station

Elev 0 ft 59.37 °N, 17.96 °E | Updated 3 minutes ago

Clear
Clear
58.1 °F
Feels Like 58.1 °F
N
1.2
Wind Variable Wind from SSW
Gusts 3.1 mph

Today
High -- | Low -- °F
--% Chance of Precip.
Yesterday
High -- | Low -- °F
Precip. -- in
Pressure 30.18 in
Visibility 6.2 miles
Clouds
Dew Point 57 °F
Humidity 96%
Rainfall 0.00 in
Snow Depth Not available.
5:29 AM 8:09 PM
Waning Gibbous, 50% visible
METAR ESSB 250220Z AUTO 00000KT 9999 NCD 14/13 Q1022
Pressure 30.18 in
Visibility 6.2 miles
Clouds
Dew Point 57 °F
Humidity 96%
Rainfall 0.00 in
Snow Depth Not available.
5:29 AM 8:09 PM
Waning Gibbous, 50% visible
METAR ESSB 250220Z AUTO 00000KT 9999 NCD 14/13 Q1022

10-Day Weather Forecast

×

Almanac

Astronomy

Aug. 25, 2016 Rise Set
Actual Time
Civil Twilight
Nautical Twilight
Astronomical Twilight
Moon
Length of Visible Light
Length of Day
Tomorrow will be .
, % of the Moon is Illuminated

Today's Extremes

Country Highs Country Lows

Community

WunderPhotos

Upload Photos

1,934,779 photos uploaded!

WunderBlog® & News

Nearby

Air Quality

  Air Quality AQ Index Pollutant
Not available.

Snow Depth

Station Depth Elevation

Earthquake Activity

City Distance Mag. Time & Date
Minimum magnitude displayed is 2.5.

Coastal Water Temperatures

Place Temperature

Stations

Nearby Weather Stations

Station Location Temp. Windchill Dew Point Humidity Wind Precip. Elev Updated Type